»·PEaware :: UAL576 KPSP-KSBA

UAL576 :: KPSP-KSBA

FLIGHT INFORMATION

Flight Status: Arrived
Operator:
United Airlines
More flights by this operator :: More flights under this callsign
Pilot: Anonymous 8274 (8274)
Aircraft: BOEING 737-200
(B732)
More flights by this aircraft type
Origin: KPSP Palm Springs Intl
United States
Destination: KSBA Santa Barbara Mun
United States
More flights between these airports :: More routes between these airports
Route: CATH1 PSP V388 PDZ V186 DEANO V27 KWANG
File this flight plan on PilotEdge
Remarks:
Altitude:
(Current/Filed)
10,000ft
Speed:
(Current/Filed)
340kts
Departed: 18-Dec-17 05:50 PM
Arrived: 18-Dec-17 06:39 PM
Distance/Time
Traveled:
169nm/0:48
Distance/Time
To Go:
Arrived

Flight Plot

Page will automatically refresh every two minutes.

Flight plan parsing failed; only flown route is shown


Map Options




Map Legend


Flown Route
Filed Route
Departure Airport
Arrival Airport
Navaid (VOR, NDB)
Fix

Horizontal Profiles

Position Reports

Time Latitude Longitude Heading Altitude Ground
Speed
18-Dec-17 17:34 33.823704 -116.506198 225 486ft 0kts
18-Dec-17 17:35 33.823704 -116.506198 225 486ft 0kts
18-Dec-17 17:36 33.823704 -116.506198 225 486ft 0kts
18-Dec-17 17:37 33.823704 -116.506198 225 486ft 0kts
18-Dec-17 17:38 33.823704 -116.506198 225 486ft 0kts
18-Dec-17 17:39 33.823704 -116.506198 225 486ft 0kts
18-Dec-17 17:40 33.823704 -116.506198 225 485ft 0kts
18-Dec-17 17:41 33.823704 -116.506197 225 485ft 0kts
18-Dec-17 17:42 33.823704 -116.506197 225 485ft 0kts
18-Dec-17 17:43 33.823704 -116.506197 225 485ft 0kts
18-Dec-17 17:44 33.823701 -116.506201 225 485ft 0kts
18-Dec-17 17:45 33.823907 -116.505944 225 485ft 2kts
18-Dec-17 17:46 33.824364 -116.505875 144 485ft 0kts
18-Dec-17 17:47 33.824364 -116.505874 144 485ft 0kts
18-Dec-17 17:48 33.824364 -116.505874 144 485ft 0kts
18-Dec-17 17:49 33.823049 -116.504669 123 485ft 9kts
18-Dec-17 17:50 33.823004 -116.504546 104 485ft 0kts
18-Dec-17 17:51 33.823004 -116.504546 104 485ft 0kts
18-Dec-17 17:52 33.821830 -116.502709 143 485ft 19kts
18-Dec-17 17:53 33.818510 -116.499001 86 485ft 0kts
18-Dec-17 17:54 33.818510 -116.498999 86 485ft 0kts
18-Dec-17 17:55 33.819286 -116.498425 322 485ft 4kts
18-Dec-17 17:56 33.823815 -116.502453 322 486ft 93kts
18-Dec-17 17:57 33.855594 -116.532224 321 1918ft 162kts
18-Dec-17 17:58 33.899263 -116.575436 330 3253ft 240kts
18-Dec-17 17:59 33.946885 -116.540723 91 5971ft 255kts
18-Dec-17 18:00 33.903638 -116.468729 133 8124ft 288kts
18-Dec-17 18:01 33.852048 -116.396300 109 10035ft 309kts
18-Dec-17 18:02 33.812182 -116.295780 115 10006ft 354kts
18-Dec-17 18:03 33.750703 -116.203407 160 9992ft 381kts
18-Dec-17 18:04 33.662446 -116.240516 246 9968ft 330kts
18-Dec-17 18:05 33.685207 -116.320531 331 9982ft 258kts
18-Dec-17 18:06 33.757518 -116.365178 337 9978ft 316kts
18-Dec-17 18:07 33.837610 -116.410149 331 10000ft 318kts
18-Dec-17 18:08 33.896840 -116.479378 283 10022ft 323kts
18-Dec-17 18:09 33.907721 -116.586081 285 10004ft 320kts
18-Dec-17 18:10 33.925804 -116.679588 286 9992ft 319kts
18-Dec-17 18:11 33.949918 -116.781037 290 9995ft 321kts
18-Dec-17 18:12 33.981034 -116.883352 290 10078ft 335kts
18-Dec-17 18:13 34.014201 -116.990338 290 10077ft 347kts
18-Dec-17 18:14 33.999886 -117.101675 244 10075ft 355kts
18-Dec-17 18:15 33.953356 -117.207520 242 9996ft 368kts
18-Dec-17 18:16 33.915539 -117.319634 277 10008ft 364kts
18-Dec-17 18:17 33.931068 -117.439140 266 9982ft 372kts
18-Dec-17 18:18 33.920919 -117.561237 293 10008ft 367kts
18-Dec-17 18:19 33.957853 -117.657453 297 10013ft 367kts
18-Dec-17 18:20 34.000190 -117.765930 295 10014ft 361kts
18-Dec-17 18:21 34.036290 -117.877227 293 9988ft 358kts
18-Dec-17 18:22 34.072360 -117.987741 295 9988ft 354kts
18-Dec-17 18:23 34.109180 -118.091545 295 9992ft 351kts
18-Dec-17 18:24 34.147188 -118.198463 295 9965ft 351kts
18-Dec-17 18:25 34.185247 -118.305309 296 9965ft 350kts
18-Dec-17 18:26 34.195536 -118.414046 284 9955ft 352kts
18-Dec-17 18:27 34.230444 -118.522301 297 9865ft 350kts
18-Dec-17 18:28 34.270608 -118.628763 295 9856ft 350kts
18-Dec-17 18:29 34.305674 -118.728014 295 9964ft 347kts
18-Dec-17 18:30 34.339997 -118.836224 292 9986ft 347kts
18-Dec-17 18:31 34.354506 -118.949273 253 10017ft 356kts
18-Dec-17 18:32 34.342907 -119.059405 268 9856ft 295kts
18-Dec-17 18:33 34.337126 -119.152078 268 8977ft 261kts
18-Dec-17 18:34 34.332155 -119.237428 268 8970ft 247kts
18-Dec-17 18:35 34.325512 -119.318207 265 7478ft 243kts
18-Dec-17 18:36 34.319970 -119.397406 265 6497ft 237kts
18-Dec-17 18:37 34.323834 -119.473942 290 5694ft 227kts
18-Dec-17 18:38 34.347835 -119.544235 291 4757ft 209kts
18-Dec-17 18:39 34.369449 -119.606847 291 3955ft 183kts
18-Dec-17 18:40 34.387766 -119.662469 291 2862ft 180kts
18-Dec-17 18:41 34.408578 -119.709690 304 1948ft 168kts
18-Dec-17 18:42 34.429392 -119.753711 269 1285ft 143kts
18-Dec-17 18:43 34.428575 -119.801476 267 592ft 142kts
18-Dec-17 18:44 34.427643 -119.847146 269 22ft 84kts
18-Dec-17 18:45 34.426644 -119.854066 133 21ft 0kts
18-Dec-17 18:46 34.426577 -119.853975 128 21ft 5kts
18-Dec-17 18:47 34.426508 -119.846670 88 21ft 26kts
18-Dec-17 18:48 34.426648 -119.838463 127 21ft 15kts
18-Dec-17 18:49 34.425125 -119.837263 114 21ft 0kts
18-Dec-17 18:50 34.425125 -119.837263 114 21ft 0kts
18-Dec-17 18:51 34.425125 -119.837263 114 21ft 0kts
18-Dec-17 18:52 34.425125 -119.837263 114 21ft 0kts

Navigation Log

Ident Type
Flight plan parsing failed, navigation log unavailable